sensor_id;sensor_type;location;lat;lon;timestamp;temperature;humidity
33673;DHT22;20011;51.510;9.942;2023-03-14T00:01:16;11.10;99.90
33673;DHT22;20011;51.510;9.942;2023-03-14T00:03:43;11.10;99.90
33673;DHT22;20011;51.510;9.942;2023-03-14T00:06:10;11.10;99.90
33673;DHT22;20011;51.510;9.942;2023-03-14T00:08:37;11.10;99.90
33673;DHT22;20011;51.510;9.942;2023-03-14T00:11:16;11.10;99.90
33673;DHT22;20011;51.510;9.942;2023-03-14T00:13:50;11.10;99.90
33673;DHT22;20011;51.510;9.942;2023-03-14T00:16:20;11.10;99.90
33673;DHT22;20011;51.510;9.942;2023-03-14T00:18:47;11.10;99.90
33673;DHT22;20011;51.510;9.942;2023-03-14T00:21:15;11.10;99.90
33673;DHT22;20011;51.510;9.942;2023-03-14T00:23:42;11.10;99.90
33673;DHT22;20011;51.510;9.942;2023-03-14T00:26:12;11.10;99.90
33673;DHT22;20011;51.510;9.942;2023-03-14T00:28:40;11.10;99.90
33673;DHT22;20011;51.510;9.942;2023-03-14T00:31:10;11.20;99.90
33673;DHT22;20011;51.510;9.942;2023-03-14T00:33:37;11.20;99.90
33673;DHT22;20011;51.510;9.942;2023-03-14T00:36:06;11.40;99.90
33673;DHT22;20011;51.510;9.942;2023-03-14T00:38:37;11.40;99.90
33673;DHT22;20011;51.510;9.942;2023-03-14T00:41:06;11.40;99.90
33673;DHT22;20011;51.510;9.942;2023-03-14T00:43:33;11.50;99.90
33673;DHT22;20011;51.510;9.942;2023-03-14T00:46:01;11.70;99.90
33673;DHT22;20011;51.510;9.942;2023-03-14T00:48:28;12.00;99.90
33673;DHT22;20011;51.510;9.942;2023-03-14T00:50:55;11.90;99.90
33673;DHT22;20011;51.510;9.942;2023-03-14T00:53:22;12.00;99.90
33673;DHT22;20011;51.510;9.942;2023-03-14T00:55:50;12.10;99.90
33673;DHT22;20011;51.510;9.942;2023-03-14T00:58:17;12.20;99.90
33673;DHT22;20011;51.510;9.942;2023-03-14T01:00:45;12.20;99.90
33673;DHT22;20011;51.510;9.942;2023-03-14T01:03:13;12.30;99.90
33673;DHT22;20011;51.510;9.942;2023-03-14T01:05:41;12.20;99.90
33673;DHT22;20011;51.510;9.942;2023-03-14T01:08:08;12.20;99.90
33673;DHT22;20011;51.510;9.942;2023-03-14T01:10:39;12.20;99.90
33673;DHT22;20011;51.510;9.942;2023-03-14T01:13:07;12.10;99.90
33673;DHT22;20011;51.510;9.942;2023-03-14T01:15:36;12.20;99.90
33673;DHT22;20011;51.510;9.942;2023-03-14T01:18:04;12.10;99.90
33673;DHT22;20011;51.510;9.942;2023-03-14T01:20:31;12.20;99.90
33673;DHT22;20011;51.510;9.942;2023-03-14T01:22:58;12.10;99.90
33673;DHT22;20011;51.510;9.942;2023-03-14T01:25:25;12.00;99.90
33673;DHT22;20011;51.510;9.942;2023-03-14T01:27:53;12.00;99.90
33673;DHT22;20011;51.510;9.942;2023-03-14T01:30:20;11.90;99.90
33673;DHT22;20011;51.510;9.942;2023-03-14T01:32:47;11.90;99.90
33673;DHT22;20011;51.510;9.942;2023-03-14T01:35:15;11.70;99.90
33673;DHT22;20011;51.510;9.942;2023-03-14T01:37:42;11.70;99.90
33673;DHT22;20011;51.510;9.942;2023-03-14T01:40:14;11.70;99.90
33673;DHT22;20011;51.510;9.942;2023-03-14T01:43:13;11.80;99.90
33673;DHT22;20011;51.510;9.942;2023-03-14T01:48:44;11.70;99.90
33673;DHT22;20011;51.510;9.942;2023-03-14T01:54:28;11.60;99.90
33673;DHT22;20011;51.510;9.942;2023-03-14T01:57:06;11.70;99.90
33673;DHT22;20011;51.510;9.942;2023-03-14T01:59:34;11.60;99.90
33673;DHT22;20011;51.510;9.942;2023-03-14T02:02:05;11.50;99.90
33673;DHT22;20011;51.510;9.942;2023-03-14T02:04:34;11.50;99.90
33673;DHT22;20011;51.510;9.942;2023-03-14T02:09:49;11.50;99.90
33673;DHT22;20011;51.510;9.942;2023-03-14T02:12:23;11.60;99.90
33673;DHT22;20011;51.510;9.942;2023-03-14T02:15:05;11.60;99.90
33673;DHT22;20011;51.510;9.942;2023-03-14T02:17:49;11.60;99.90
33673;DHT22;20011;51.510;9.942;2023-03-14T02:23:16;11.60;99.90
33673;DHT22;20011;51.510;9.942;2023-03-14T02:25:53;11.60;99.90
33673;DHT22;20011;51.510;9.942;2023-03-14T02:30:55;11.60;99.90
33673;DHT22;20011;51.510;9.942;2023-03-14T02:33:23;11.70;99.90
33673;DHT22;20011;51.510;9.942;2023-03-14T02:35:57;11.70;99.90
33673;DHT22;20011;51.510;9.942;2023-03-14T02:41:10;11.70;99.90
33673;DHT22;20011;51.510;9.942;2023-03-14T02:43:42;11.70;99.90
33673;DHT22;20011;51.510;9.942;2023-03-14T02:46:13;11.80;99.90
33673;DHT22;20011;51.510;9.942;2023-03-14T02:48:45;11.80;99.90
33673;DHT22;20011;51.510;9.942;2023-03-14T02:51:16;11.70;99.90
33673;DHT22;20011;51.510;9.942;2023-03-14T02:53:46;11.60;99.90
33673;DHT22;20011;51.510;9.942;2023-03-14T02:56:14;11.70;99.90
33673;DHT22;20011;51.510;9.942;2023-03-14T02:58:41;11.70;99.90
33673;DHT22;20011;51.510;9.942;2023-03-14T03:01:28;11.70;99.90
33673;DHT22;20011;51.510;9.942;2023-03-14T03:03:55;11.80;99.90
33673;DHT22;20011;51.510;9.942;2023-03-14T03:06:22;11.80;99.90
33673;DHT22;20011;51.510;9.942;2023-03-14T03:08:49;11.80;99.90
33673;DHT22;20011;51.510;9.942;2023-03-14T03:11:17;11.80;99.90
33673;DHT22;20011;51.510;9.942;2023-03-14T03:13:44;12.00;99.90
33673;DHT22;20011;51.510;9.942;2023-03-14T03:16:12;12.00;99.90
33673;DHT22;20011;51.510;9.942;2023-03-14T03:18:41;12.00;99.90
33673;DHT22;20011;51.510;9.942;2023-03-14T03:21:08;12.00;99.90
33673;DHT22;20011;51.510;9.942;2023-03-14T03:23:36;11.90;99.90
33673;DHT22;20011;51.510;9.942;2023-03-14T03:26:05;11.80;99.90
33673;DHT22;20011;51.510;9.942;2023-03-14T03:28:32;11.80;99.90
33673;DHT22;20011;51.510;9.942;2023-03-14T03:31:07;11.80;99.90
33673;DHT22;20011;51.510;9.942;2023-03-14T03:33:36;11.70;99.90
33673;DHT22;20011;51.510;9.942;2023-03-14T03:36:04;11.60;99.90
33673;DHT22;20011;51.510;9.942;2023-03-14T03:38:38;11.60;99.90
33673;DHT22;20011;51.510;9.942;2023-03-14T03:41:06;11.50;99.90
33673;DHT22;20011;51.510;9.942;2023-03-14T03:43:35;11.60;99.90
33673;DHT22;20011;51.510;9.942;2023-03-14T03:46:05;11.60;99.90
33673;DHT22;20011;51.510;9.942;2023-03-14T03:48:33;11.60;99.90
33673;DHT22;20011;51.510;9.942;2023-03-14T03:51:03;11.60;99.90
33673;DHT22;20011;51.510;9.942;2023-03-14T03:53:31;11.50;99.90
33673;DHT22;20011;51.510;9.942;2023-03-14T03:56:08;11.60;99.90
33673;DHT22;20011;51.510;9.942;2023-03-14T03:58:36;11.60;99.90
33673;DHT22;20011;51.510;9.942;2023-03-14T04:01:06;11.50;99.90
33673;DHT22;20011;51.510;9.942;2023-03-14T04:03:36;11.50;99.90
33673;DHT22;20011;51.510;9.942;2023-03-14T04:06:08;11.50;99.90
33673;DHT22;20011;51.510;9.942;2023-03-14T04:08:38;11.60;99.90
33673;DHT22;20011;51.510;9.942;2023-03-14T04:11:10;11.60;99.90
33673;DHT22;20011;51.510;9.942;2023-03-14T04:13:52;11.70;99.90
33673;DHT22;20011;51.510;9.942;2023-03-14T04:16:22;11.80;99.90
33673;DHT22;20011;51.510;9.942;2023-03-14T04:18:52;12.00;99.90
33673;DHT22;20011;51.510;9.942;2023-03-14T04:21:21;11.90;99.90
33673;DHT22;20011;51.510;9.942;2023-03-14T04:23:53;12.10;99.90
33673;DHT22;20011;51.510;9.942;2023-03-14T04:26:20;12.10;99.90
33673;DHT22;20011;51.510;9.942;2023-03-14T04:28:47;12.00;99.90
33673;DHT22;20011;51.510;9.942;2023-03-14T04:31:17;11.90;99.90
33673;DHT22;20011;51.510;9.942;2023-03-14T04:33:46;11.80;99.90
33673;DHT22;20011;51.510;9.942;2023-03-14T04:36:16;11.70;99.90
33673;DHT22;20011;51.510;9.942;2023-03-14T04:38:43;11.70;99.90
33673;DHT22;20011;51.510;9.942;2023-03-14T04:41:12;11.70;99.90
33673;DHT22;20011;51.510;9.942;2023-03-14T04:43:39;11.70;99.90
33673;DHT22;20011;51.510;9.942;2023-03-14T04:46:08;11.60;99.90
33673;DHT22;20011;51.510;9.942;2023-03-14T04:48:35;11.50;99.90
33673;DHT22;20011;51.510;9.942;2023-03-14T04:51:05;11.50;99.90
33673;DHT22;20011;51.510;9.942;2023-03-14T04:53:34;11.40;99.90
33673;DHT22;20011;51.510;9.942;2023-03-14T04:56:05;11.40;99.90
33673;DHT22;20011;51.510;9.942;2023-03-14T04:58:39;11.30;99.90
33673;DHT22;20011;51.510;9.942;2023-03-14T05:01:07;11.30;99.90
33673;DHT22;20011;51.510;9.942;2023-03-14T05:03:52;11.40;99.90
33673;DHT22;20011;51.510;9.942;2023-03-14T05:06:29;11.40;99.90
33673;DHT22;20011;51.510;9.942;2023-03-14T05:09:10;11.30;99.90
33673;DHT22;20011;51.510;9.942;2023-03-14T05:11:37;11.30;99.90
33673;DHT22;20011;51.510;9.942;2023-03-14T05:14:04;11.20;99.90
33673;DHT22;20011;51.510;9.942;2023-03-14T05:16:34;11.20;99.90
33673;DHT22;20011;51.510;9.942;2023-03-14T05:19:13;11.20;99.90
33673;DHT22;20011;51.510;9.942;2023-03-14T05:21:59;11.20;99.90
33673;DHT22;20011;51.510;9.942;2023-03-14T05:24:35;11.10;99.90
33673;DHT22;20011;51.510;9.942;2023-03-14T05:27:16;11.10;99.90
33673;DHT22;20011;51.510;9.942;2023-03-14T05:30:03;11.10;99.90
33673;DHT22;20011;51.510;9.942;2023-03-14T05:32:44;11.10;99.90
33673;DHT22;20011;51.510;9.942;2023-03-14T05:35:28;11.10;99.90
33673;DHT22;20011;51.510;9.942;2023-03-14T05:38:09;11.20;99.90
33673;DHT22;20011;51.510;9.942;2023-03-14T05:40:45;11.30;99.90
33673;DHT22;20011;51.510;9.942;2023-03-14T05:43:31;11.40;99.90
33673;DHT22;20011;51.510;9.942;2023-03-14T05:46:09;11.40;99.90
33673;DHT22;20011;51.510;9.942;2023-03-14T05:49:11;11.40;99.90
33673;DHT22;20011;51.510;9.942;2023-03-14T05:51:48;11.30;99.90
33673;DHT22;20011;51.510;9.942;2023-03-14T05:54:34;11.40;99.90
33673;DHT22;20011;51.510;9.942;2023-03-14T05:57:39;11.40;99.90
33673;DHT22;20011;51.510;9.942;2023-03-14T06:00:22;11.50;99.90
33673;DHT22;20011;51.510;9.942;2023-03-14T06:03:04;11.50;99.90
33673;DHT22;20011;51.510;9.942;2023-03-14T06:05:36;11.60;99.90
33673;DHT22;20011;51.510;9.942;2023-03-14T06:08:04;11.60;99.90
33673;DHT22;20011;51.510;9.942;2023-03-14T06:10:32;11.50;99.90
33673;DHT22;20011;51.510;9.942;2023-03-14T06:13:01;11.50;99.90
33673;DHT22;20011;51.510;9.942;2023-03-14T06:15:30;11.50;99.90
33673;DHT22;20011;51.510;9.942;2023-03-14T06:17:57;11.50;99.90
33673;DHT22;20011;51.510;9.942;2023-03-14T06:20:25;11.50;99.90
33673;DHT22;20011;51.510;9.942;2023-03-14T06:22:53;11.50;99.90
33673;DHT22;20011;51.510;9.942;2023-03-14T06:25:20;11.40;99.90
33673;DHT22;20011;51.510;9.942;2023-03-14T06:27:48;11.50;99.90
33673;DHT22;20011;51.510;9.942;2023-03-14T06:30:16;11.40;99.90
33673;DHT22;20011;51.510;9.942;2023-03-14T06:32:44;11.40;99.90
33673;DHT22;20011;51.510;9.942;2023-03-14T06:35:13;11.30;99.90
33673;DHT22;20011;51.510;9.942;2023-03-14T06:37:42;11.30;99.90
33673;DHT22;20011;51.510;9.942;2023-03-14T06:40:11;11.30;99.90
33673;DHT22;20011;51.510;9.942;2023-03-14T06:42:57;11.30;99.90
33673;DHT22;20011;51.510;9.942;2023-03-14T06:45:27;11.40;99.90
33673;DHT22;20011;51.510;9.942;2023-03-14T06:47:55;11.40;99.90
33673;DHT22;20011;51.510;9.942;2023-03-14T06:50:30;11.60;99.90
33673;DHT22;20011;51.510;9.942;2023-03-14T06:52:58;11.70;99.90
33673;DHT22;20011;51.510;9.942;2023-03-14T06:55:26;11.70;99.90
33673;DHT22;20011;51.510;9.942;2023-03-14T06:57:53;11.70;99.90
33673;DHT22;20011;51.510;9.942;2023-03-14T07:00:20;11.80;99.90
33673;DHT22;20011;51.510;9.942;2023-03-14T07:02:49;11.80;99.90
33673;DHT22;20011;51.510;9.942;2023-03-14T07:05:25;11.90;99.90
33673;DHT22;20011;51.510;9.942;2023-03-14T07:07:52;11.90;99.90
33673;DHT22;20011;51.510;9.942;2023-03-14T07:10:19;12.00;99.90
33673;DHT22;20011;51.510;9.942;2023-03-14T07:12:46;12.00;99.90
33673;DHT22;20011;51.510;9.942;2023-03-14T07:15:13;11.90;99.90
33673;DHT22;20011;51.510;9.942;2023-03-14T07:17:48;11.90;99.90
33673;DHT22;20011;51.510;9.942;2023-03-14T07:20:18;11.80;99.90
33673;DHT22;20011;51.510;9.942;2023-03-14T07:22:47;11.80;99.90
33673;DHT22;20011;51.510;9.942;2023-03-14T07:25:17;11.70;99.90
33673;DHT22;20011;51.510;9.942;2023-03-14T07:27:45;11.70;99.90
33673;DHT22;20011;51.510;9.942;2023-03-14T07:30:14;11.70;99.90
33673;DHT22;20011;51.510;9.942;2023-03-14T07:32:41;11.80;99.90
33673;DHT22;20011;51.510;9.942;2023-03-14T07:35:09;11.90;99.90
33673;DHT22;20011;51.510;9.942;2023-03-14T07:37:38;11.80;99.90
33673;DHT22;20011;51.510;9.942;2023-03-14T07:40:06;11.90;99.90
33673;DHT22;20011;51.510;9.942;2023-03-14T07:42:35;11.90;99.90
33673;DHT22;20011;51.510;9.942;2023-03-14T07:45:21;12.00;99.90
33673;DHT22;20011;51.510;9.942;2023-03-14T07:47:51;12.00;99.90
33673;DHT22;20011;51.510;9.942;2023-03-14T07:50:18;12.00;99.90
33673;DHT22;20011;51.510;9.942;2023-03-14T07:52:45;12.00;99.90
33673;DHT22;20011;51.510;9.942;2023-03-14T07:55:12;12.10;99.90
33673;DHT22;20011;51.510;9.942;2023-03-14T07:57:40;12.10;99.90
33673;DHT22;20011;51.510;9.942;2023-03-14T08:00:08;12.10;99.90
33673;DHT22;20011;51.510;9.942;2023-03-14T08:02:38;12.20;99.90
33673;DHT22;20011;51.510;9.942;2023-03-14T08:05:06;12.20;99.90
33673;DHT22;20011;51.510;9.942;2023-03-14T08:07:33;12.30;99.90
33673;DHT22;20011;51.510;9.942;2023-03-14T08:10:00;12.20;99.90
33673;DHT22;20011;51.510;9.942;2023-03-14T08:12:27;12.10;99.90
33673;DHT22;20011;51.510;9.942;2023-03-14T08:14:54;12.10;99.90
33673;DHT22;20011;51.510;9.942;2023-03-14T08:17:21;12.00;99.90
33673;DHT22;20011;51.510;9.942;2023-03-14T08:19:48;12.10;99.90
33673;DHT22;20011;51.510;9.942;2023-03-14T08:22:15;12.20;99.90
33673;DHT22;20011;51.510;9.942;2023-03-14T08:24:45;12.30;99.90
33673;DHT22;20011;51.510;9.942;2023-03-14T08:27:12;12.30;99.90
33673;DHT22;20011;51.510;9.942;2023-03-14T08:29:41;12.30;99.90
33673;DHT22;20011;51.510;9.942;2023-03-14T08:32:08;12.40;99.90
33673;DHT22;20011;51.510;9.942;2023-03-14T08:34:36;12.50;99.90
33673;DHT22;20011;51.510;9.942;2023-03-14T08:37:05;12.50;99.90
33673;DHT22;20011;51.510;9.942;2023-03-14T08:39:49;12.50;99.90
33673;DHT22;20011;51.510;9.942;2023-03-14T08:42:16;12.50;99.90
33673;DHT22;20011;51.510;9.942;2023-03-14T08:44:43;12.50;99.90
33673;DHT22;20011;51.510;9.942;2023-03-14T08:47:10;12.60;99.90
33673;DHT22;20011;51.510;9.942;2023-03-14T08:49:37;12.50;99.90
33673;DHT22;20011;51.510;9.942;2023-03-14T08:52:05;12.40;99.90
33673;DHT22;20011;51.510;9.942;2023-03-14T08:54:32;12.40;99.90
33673;DHT22;20011;51.510;9.942;2023-03-14T08:56:59;12.40;99.90
33673;DHT22;20011;51.510;9.942;2023-03-14T08:59:26;12.40;99.90
33673;DHT22;20011;51.510;9.942;2023-03-14T09:01:53;12.40;99.90
33673;DHT22;20011;51.510;9.942;2023-03-14T09:04:21;12.40;99.90
33673;DHT22;20011;51.510;9.942;2023-03-14T09:06:48;12.40;99.90
33673;DHT22;20011;51.510;9.942;2023-03-14T09:09:15;12.40;99.90
33673;DHT22;20011;51.510;9.942;2023-03-14T09:11:42;12.50;99.90
33673;DHT22;20011;51.510;9.942;2023-03-14T09:14:09;12.40;99.90
33673;DHT22;20011;51.510;9.942;2023-03-14T09:16:36;12.50;99.90
33673;DHT22;20011;51.510;9.942;2023-03-14T09:19:03;12.50;99.90
33673;DHT22;20011;51.510;9.942;2023-03-14T09:21:31;12.50;99.90
33673;DHT22;20011;51.510;9.942;2023-03-14T09:23:58;12.50;99.90
33673;DHT22;20011;51.510;9.942;2023-03-14T09:26:25;12.50;99.90
33673;DHT22;20011;51.510;9.942;2023-03-14T09:28:51;12.50;99.90
33673;DHT22;20011;51.510;9.942;2023-03-14T09:31:18;12.50;99.90
33673;DHT22;20011;51.510;9.942;2023-03-14T09:33:45;12.60;99.90
33673;DHT22;20011;51.510;9.942;2023-03-14T09:36:12;12.70;99.90
33673;DHT22;20011;51.510;9.942;2023-03-14T09:41:17;12.70;99.90
33673;DHT22;20011;51.510;9.942;2023-03-14T09:43:46;13.00;99.90
33673;DHT22;20011;51.510;9.942;2023-03-14T09:46:18;12.80;99.90
33673;DHT22;20011;51.510;9.942;2023-03-14T09:48:45;12.80;99.90
33673;DHT22;20011;51.510;9.942;2023-03-14T09:51:15;12.80;99.90
33673;DHT22;20011;51.510;9.942;2023-03-14T09:53:45;13.00;99.90
33673;DHT22;20011;51.510;9.942;2023-03-14T09:56:23;13.00;99.90
33673;DHT22;20011;51.510;9.942;2023-03-14T09:58:55;13.10;99.90
33673;DHT22;20011;51.510;9.942;2023-03-14T10:01:29;13.00;99.90
33673;DHT22;20011;51.510;9.942;2023-03-14T10:04:06;13.10;99.90
33673;DHT22;20011;51.510;9.942;2023-03-14T10:06:36;13.10;99.90
33673;DHT22;20011;51.510;9.942;2023-03-14T10:09:03;13.20;99.90
33673;DHT22;20011;51.510;9.942;2023-03-14T10:11:32;13.30;99.90
33673;DHT22;20011;51.510;9.942;2023-03-14T10:14:08;13.30;99.90
33673;DHT22;20011;51.510;9.942;2023-03-14T10:16:45;13.20;99.90
33673;DHT22;20011;51.510;9.942;2023-03-14T10:19:15;13.20;99.90
33673;DHT22;20011;51.510;9.942;2023-03-14T10:21:44;13.20;99.90
33673;DHT22;20011;51.510;9.942;2023-03-14T10:24:26;13.30;99.90
33673;DHT22;20011;51.510;9.942;2023-03-14T10:26:57;13.30;99.90
33673;DHT22;20011;51.510;9.942;2023-03-14T10:29:25;13.30;99.90
33673;DHT22;20011;51.510;9.942;2023-03-14T10:31:54;13.30;99.90
33673;DHT22;20011;51.510;9.942;2023-03-14T10:34:31;13.50;99.90
33673;DHT22;20011;51.510;9.942;2023-03-14T10:37:06;13.40;99.90
33673;DHT22;20011;51.510;9.942;2023-03-14T10:39:52;13.50;99.90
33673;DHT22;20011;51.510;9.942;2023-03-14T10:44:54;13.30;99.90
33673;DHT22;20011;51.510;9.942;2023-03-14T10:47:25;13.30;99.90
33673;DHT22;20011;51.510;9.942;2023-03-14T10:49:52;13.30;99.90
33673;DHT22;20011;51.510;9.942;2023-03-14T10:52:25;13.40;99.90
33673;DHT22;20011;51.510;9.942;2023-03-14T10:55:08;13.40;99.90
33673;DHT22;20011;51.510;9.942;2023-03-14T10:57:42;13.50;99.90
33673;DHT22;20011;51.510;9.942;2023-03-14T11:00:15;13.60;99.90
33673;DHT22;20011;51.510;9.942;2023-03-14T11:03:00;13.60;99.90
33673;DHT22;20011;51.510;9.942;2023-03-14T11:05:43;13.60;99.90
33673;DHT22;20011;51.510;9.942;2023-03-14T11:08:15;13.50;99.90
33673;DHT22;20011;51.510;9.942;2023-03-14T11:10:50;13.50;99.90
33673;DHT22;20011;51.510;9.942;2023-03-14T11:13:34;13.40;99.90
33673;DHT22;20011;51.510;9.942;2023-03-14T11:19:27;13.50;99.90
33673;DHT22;20011;51.510;9.942;2023-03-14T11:24:46;13.50;99.90
33673;DHT22;20011;51.510;9.942;2023-03-14T11:27:23;13.60;99.90
33673;DHT22;20011;51.510;9.942;2023-03-14T11:32:46;13.40;99.90
33673;DHT22;20011;51.510;9.942;2023-03-14T11:35:28;13.50;99.90
33673;DHT22;20011;51.510;9.942;2023-03-14T11:40:37;13.70;99.90
33673;DHT22;20011;51.510;9.942;2023-03-14T11:45:38;13.80;99.90
33673;DHT22;20011;51.510;9.942;2023-03-14T11:48:28;13.70;99.90
33673;DHT22;20011;51.510;9.942;2023-03-14T11:50:58;13.60;99.90
33673;DHT22;20011;51.510;9.942;2023-03-14T11:53:59;13.50;99.90
33673;DHT22;20011;51.510;9.942;2023-03-14T11:56:48;13.60;99.90
33673;DHT22;20011;51.510;9.942;2023-03-14T11:59:23;13.50;99.90
33673;DHT22;20011;51.510;9.942;2023-03-14T12:01:58;13.40;99.90
33673;DHT22;20011;51.510;9.942;2023-03-14T12:05:11;13.40;99.90
33673;DHT22;20011;51.510;9.942;2023-03-14T12:10:37;13.20;99.90
33673;DHT22;20011;51.510;9.942;2023-03-14T12:13:08;13.10;99.90
33673;DHT22;20011;51.510;9.942;2023-03-14T12:15:46;13.00;99.90
33673;DHT22;20011;51.510;9.942;2023-03-14T12:18:27;12.90;99.90
33673;DHT22;20011;51.510;9.942;2023-03-14T12:20:58;12.80;99.90
33673;DHT22;20011;51.510;9.942;2023-03-14T12:23:26;12.80;99.90
33673;DHT22;20011;51.510;9.942;2023-03-14T12:28:42;12.70;99.90
33673;DHT22;20011;51.510;9.942;2023-03-14T12:45:21;11.30;99.90
33673;DHT22;20011;51.510;9.942;2023-03-14T12:50:21;11.10;99.90
33673;DHT22;20011;51.510;9.942;2023-03-14T12:52:57;10.90;99.90
33673;DHT22;20011;51.510;9.942;2023-03-14T13:01:29;10.60;99.90
33673;DHT22;20011;51.510;9.942;2023-03-14T13:03:57;10.50;99.90
33673;DHT22;20011;51.510;9.942;2023-03-14T13:06:56;10.40;99.90
33673;DHT22;20011;51.510;9.942;2023-03-14T13:12:03;10.20;99.90
33673;DHT22;20011;51.510;9.942;2023-03-14T13:14:41;9.90;99.90
33673;DHT22;20011;51.510;9.942;2023-03-14T13:17:11;9.90;99.90
33673;DHT22;20011;51.510;9.942;2023-03-14T13:20:09;9.80;99.90
33673;DHT22;20011;51.510;9.942;2023-03-14T13:22:37;9.60;99.90
33673;DHT22;20011;51.510;9.942;2023-03-14T13:25:07;10.20;99.90
33673;DHT22;20011;51.510;9.942;2023-03-14T13:27:36;8.50;99.90
33673;DHT22;20011;51.510;9.942;2023-03-14T13:30:28;9.10;99.90
33673;DHT22;20011;51.510;9.942;2023-03-14T13:32:55;8.90;99.90
33673;DHT22;20011;51.510;9.942;2023-03-14T13:35:29;8.50;99.90
33673;DHT22;20011;51.510;9.942;2023-03-14T13:38:01;8.50;99.90
33673;DHT22;20011;51.510;9.942;2023-03-14T13:40:38;8.10;99.90
33673;DHT22;20011;51.510;9.942;2023-03-14T13:43:13;8.10;99.90
33673;DHT22;20011;51.510;9.942;2023-03-14T13:46:10;8.10;99.90
33673;DHT22;20011;51.510;9.942;2023-03-14T13:48:44;8.00;99.90
33673;DHT22;20011;51.510;9.942;2023-03-14T13:51:13;7.90;99.90
33673;DHT22;20011;51.510;9.942;2023-03-14T13:53:47;7.90;99.90
33673;DHT22;20011;51.510;9.942;2023-03-14T13:56:23;7.80;99.90
33673;DHT22;20011;51.510;9.942;2023-03-14T13:58:50;7.80;99.90
33673;DHT22;20011;51.510;9.942;2023-03-14T14:01:33;7.70;99.90
33673;DHT22;20011;51.510;9.942;2023-03-14T14:04:13;7.60;99.90
33673;DHT22;20011;51.510;9.942;2023-03-14T14:06:44;7.50;99.90
33673;DHT22;20011;51.510;9.942;2023-03-14T14:09:22;7.40;99.90
33673;DHT22;20011;51.510;9.942;2023-03-14T14:12:13;8.60;99.90
33673;DHT22;20011;51.510;9.942;2023-03-14T14:14:53;7.10;99.90
33673;DHT22;20011;51.510;9.942;2023-03-14T14:17:48;7.00;99.90
33673;DHT22;20011;51.510;9.942;2023-03-14T14:20:40;6.90;99.90
33673;DHT22;20011;51.510;9.942;2023-03-14T14:23:11;6.90;99.90
33673;DHT22;20011;51.510;9.942;2023-03-14T14:25:38;6.80;99.90
33673;DHT22;20011;51.510;9.942;2023-03-14T14:28:30;7.80;99.90
33673;DHT22;20011;51.510;9.942;2023-03-14T14:31:04;6.80;99.90
33673;DHT22;20011;51.510;9.942;2023-03-14T14:33:39;6.80;99.90
33673;DHT22;20011;51.510;9.942;2023-03-14T14:36:41;6.80;99.90
33673;DHT22;20011;51.510;9.942;2023-03-14T14:41:48;6.90;99.90
33673;DHT22;20011;51.510;9.942;2023-03-14T14:44:21;8.50;99.90
33673;DHT22;20011;51.510;9.942;2023-03-14T14:46:54;7.00;99.90
33673;DHT22;20011;51.510;9.942;2023-03-14T14:49:28;7.00;99.90
33673;DHT22;20011;51.510;9.942;2023-03-14T14:52:19;7.10;99.90
33673;DHT22;20011;51.510;9.942;2023-03-14T14:54:52;7.10;99.90
33673;DHT22;20011;51.510;9.942;2023-03-14T14:57:24;7.30;99.90
33673;DHT22;20011;51.510;9.942;2023-03-14T14:59:55;7.20;99.90
33673;DHT22;20011;51.510;9.942;2023-03-14T15:02:44;7.40;99.90
33673;DHT22;20011;51.510;9.942;2023-03-14T15:07:44;7.50;99.90
33673;DHT22;20011;51.510;9.942;2023-03-14T15:10:17;7.60;99.90
33673;DHT22;20011;51.510;9.942;2023-03-14T15:12:44;7.60;99.90
33673;DHT22;20011;51.510;9.942;2023-03-14T15:15:14;7.70;99.90
33673;DHT22;20011;51.510;9.942;2023-03-14T15:17:42;7.60;99.90
33673;DHT22;20011;51.510;9.942;2023-03-14T15:20:14;7.60;99.90
33673;DHT22;20011;51.510;9.942;2023-03-14T15:22:42;7.70;99.90
33673;DHT22;20011;51.510;9.942;2023-03-14T15:25:09;7.70;99.90
33673;DHT22;20011;51.510;9.942;2023-03-14T15:27:56;7.70;99.90
33673;DHT22;20011;51.510;9.942;2023-03-14T15:30:23;7.70;99.90
33673;DHT22;20011;51.510;9.942;2023-03-14T15:32:52;7.70;99.90
33673;DHT22;20011;51.510;9.942;2023-03-14T15:37:46;7.60;99.90
33673;DHT22;20011;51.510;9.942;2023-03-14T15:40:13;7.50;99.90
33673;DHT22;20011;51.510;9.942;2023-03-14T15:42:41;7.40;99.90
33673;DHT22;20011;51.510;9.942;2023-03-14T15:45:09;7.20;99.90
33673;DHT22;20011;51.510;9.942;2023-03-14T15:47:36;7.10;99.90
33673;DHT22;20011;51.510;9.942;2023-03-14T15:50:04;7.00;99.90
33673;DHT22;20011;51.510;9.942;2023-03-14T15:52:31;6.90;99.90
33673;DHT22;20011;51.510;9.942;2023-03-14T15:55:00;6.80;99.90
33673;DHT22;20011;51.510;9.942;2023-03-14T15:59:55;6.80;99.90
33673;DHT22;20011;51.510;9.942;2023-03-14T16:02:22;6.80;99.90
33673;DHT22;20011;51.510;9.942;2023-03-14T16:04:49;6.80;99.90
33673;DHT22;20011;51.510;9.942;2023-03-14T16:12:11;6.90;99.90
33673;DHT22;20011;51.510;9.942;2023-03-14T16:14:38;6.90;99.90
33673;DHT22;20011;51.510;9.942;2023-03-14T16:17:09;6.90;99.90
33673;DHT22;20011;51.510;9.942;2023-03-14T16:22:06;7.00;99.90
33673;DHT22;20011;51.510;9.942;2023-03-14T16:27:02;7.10;99.90
33673;DHT22;20011;51.510;9.942;2023-03-14T16:29:29;7.10;99.90
33673;DHT22;20011;51.510;9.942;2023-03-14T16:31:56;7.10;99.90
33673;DHT22;20011;51.510;9.942;2023-03-14T16:34:23;7.20;99.90
33673;DHT22;20011;51.510;9.942;2023-03-14T16:36:50;7.20;99.90
33673;DHT22;20011;51.510;9.942;2023-03-14T16:39:18;7.30;99.90
33673;DHT22;20011;51.510;9.942;2023-03-14T16:41:45;7.30;99.90
33673;DHT22;20011;51.510;9.942;2023-03-14T16:44:12;7.30;99.90
33673;DHT22;20011;51.510;9.942;2023-03-14T16:46:39;7.30;99.90
33673;DHT22;20011;51.510;9.942;2023-03-14T16:49:06;7.30;99.90
33673;DHT22;20011;51.510;9.942;2023-03-14T16:51:33;7.30;99.90
33673;DHT22;20011;51.510;9.942;2023-03-14T16:54:00;7.30;99.90
33673;DHT22;20011;51.510;9.942;2023-03-14T16:56:27;7.30;99.90
33673;DHT22;20011;51.510;9.942;2023-03-14T17:01:21;7.20;99.90
33673;DHT22;20011;51.510;9.942;2023-03-14T17:03:49;7.20;99.90
33673;DHT22;20011;51.510;9.942;2023-03-14T17:06:22;7.30;99.90
33673;DHT22;20011;51.510;9.942;2023-03-14T17:08:50;7.30;99.90
33673;DHT22;20011;51.510;9.942;2023-03-14T17:11:17;7.20;99.90
33673;DHT22;20011;51.510;9.942;2023-03-14T17:13:44;7.30;99.90
33673;DHT22;20011;51.510;9.942;2023-03-14T17:16:11;7.20;99.90
33673;DHT22;20011;51.510;9.942;2023-03-14T17:18:38;7.60;99.90
33673;DHT22;20011;51.510;9.942;2023-03-14T17:21:06;7.30;99.90
33673;DHT22;20011;51.510;9.942;2023-03-14T17:23:34;7.20;99.90
33673;DHT22;20011;51.510;9.942;2023-03-14T17:26:01;7.30;99.90
33673;DHT22;20011;51.510;9.942;2023-03-14T17:28:28;7.30;99.90
33673;DHT22;20011;51.510;9.942;2023-03-14T17:31:26;7.30;99.90
33673;DHT22;20011;51.510;9.942;2023-03-14T17:36:18;7.30;99.90